sensor_id;sensor_type;location;lat;lon;timestamp;P1;durP1;ratioP1;P2;durP2;ratioP2
19671;SDS011;9983;51.114;13.788;2023-05-07T00:01:47;20.47;;;14.00;;
19671;SDS011;9983;51.114;13.788;2023-05-07T00:06:47;17.67;;;14.48;;
19671;SDS011;9983;51.114;13.788;2023-05-07T00:11:47;20.77;;;14.35;;
19671;SDS011;9983;51.114;13.788;2023-05-07T00:16:47;18.98;;;15.32;;
19671;SDS011;9983;51.114;13.788;2023-05-07T00:21:48;20.27;;;15.52;;
19671;SDS011;9983;51.114;13.788;2023-05-07T00:26:48;20.83;;;15.75;;
19671;SDS011;9983;51.114;13.788;2023-05-07T00:31:49;19.20;;;14.98;;
19671;SDS011;9983;51.114;13.788;2023-05-07T00:36:50;18.02;;;14.60;;
19671;SDS011;9983;51.114;13.788;2023-05-07T00:41:50;17.83;;;14.65;;
19671;SDS011;9983;51.114;13.788;2023-05-07T00:46:51;18.60;;;15.13;;
19671;SDS011;9983;51.114;13.788;2023-05-07T00:51:51;19.50;;;15.48;;
19671;SDS011;9983;51.114;13.788;2023-05-07T00:56:52;16.15;;;14.45;;
19671;SDS011;9983;51.114;13.788;2023-05-07T01:01:52;19.50;;;15.43;;
19671;SDS011;9983;51.114;13.788;2023-05-07T01:06:52;20.80;;;15.95;;
19671;SDS011;9983;51.114;13.788;2023-05-07T01:11:56;20.15;;;15.80;;
19671;SDS011;9983;51.114;13.788;2023-05-07T01:16:57;18.33;;;15.27;;
19671;SDS011;9983;51.114;13.788;2023-05-07T01:22:02;17.88;;;14.43;;
19671;SDS011;9983;51.114;13.788;2023-05-07T01:27:06;18.42;;;14.52;;
19671;SDS011;9983;51.114;13.788;2023-05-07T01:32:07;18.52;;;14.85;;
19671;SDS011;9983;51.114;13.788;2023-05-07T01:37:07;19.23;;;14.80;;
19671;SDS011;9983;51.114;13.788;2023-05-07T01:42:08;17.90;;;14.85;;
19671;SDS011;9983;51.114;13.788;2023-05-07T01:47:08;18.15;;;15.13;;
19671;SDS011;9983;51.114;13.788;2023-05-07T01:52:10;19.17;;;14.57;;
19671;SDS011;9983;51.114;13.788;2023-05-07T01:57:11;16.63;;;13.57;;
19671;SDS011;9983;51.114;13.788;2023-05-07T02:02:11;15.85;;;13.48;;
19671;SDS011;9983;51.114;13.788;2023-05-07T02:07:11;17.05;;;13.52;;
19671;SDS011;9983;51.114;13.788;2023-05-07T02:12:11;15.77;;;12.73;;
19671;SDS011;9983;51.114;13.788;2023-05-07T02:17:12;17.67;;;13.80;;
19671;SDS011;9983;51.114;13.788;2023-05-07T02:22:12;18.37;;;14.20;;
19671;SDS011;9983;51.114;13.788;2023-05-07T02:27:12;18.95;;;13.43;;
19671;SDS011;9983;51.114;13.788;2023-05-07T02:32:12;14.95;;;12.23;;
19671;SDS011;9983;51.114;13.788;2023-05-07T02:37:13;13.88;;;11.63;;
19671;SDS011;9983;51.114;13.788;2023-05-07T02:42:13;12.82;;;11.43;;
19671;SDS011;9983;51.114;13.788;2023-05-07T02:47:14;13.07;;;10.57;;
19671;SDS011;9983;51.114;13.788;2023-05-07T02:52:15;14.60;;;11.40;;
19671;SDS011;9983;51.114;13.788;2023-05-07T02:57:15;12.88;;;11.20;;
19671;SDS011;9983;51.114;13.788;2023-05-07T03:02:15;14.57;;;11.53;;
19671;SDS011;9983;51.114;13.788;2023-05-07T03:07:16;13.90;;;11.55;;
19671;SDS011;9983;51.114;13.788;2023-05-07T03:12:16;12.60;;;10.88;;
19671;SDS011;9983;51.114;13.788;2023-05-07T03:17:16;13.32;;;10.23;;
19671;SDS011;9983;51.114;13.788;2023-05-07T03:22:16;12.88;;;10.38;;
19671;SDS011;9983;51.114;13.788;2023-05-07T03:27:17;12.20;;;10.13;;
19671;SDS011;9983;51.114;13.788;2023-05-07T03:32:17;12.10;;;10.50;;
19671;SDS011;9983;51.114;13.788;2023-05-07T03:37:17;12.15;;;10.02;;
19671;SDS011;9983;51.114;13.788;2023-05-07T03:42:18;11.55;;;9.88;;
19671;SDS011;9983;51.114;13.788;2023-05-07T03:47:18;12.90;;;10.13;;
19671;SDS011;9983;51.114;13.788;2023-05-07T03:52:18;14.52;;;10.82;;
19671;SDS011;9983;51.114;13.788;2023-05-07T03:57:23;13.95;;;11.23;;
19671;SDS011;9983;51.114;13.788;2023-05-07T04:02:23;14.73;;;12.23;;
19671;SDS011;9983;51.114;13.788;2023-05-07T04:07:24;15.02;;;12.13;;
19671;SDS011;9983;51.114;13.788;2023-05-07T04:12:24;17.00;;;12.47;;
19671;SDS011;9983;51.114;13.788;2023-05-07T04:17:24;20.30;;;13.23;;
19671;SDS011;9983;51.114;13.788;2023-05-07T04:22:25;14.57;;;11.35;;
19671;SDS011;9983;51.114;13.788;2023-05-07T04:27:25;15.45;;;11.02;;
19671;SDS011;9983;51.114;13.788;2023-05-07T04:32:26;15.70;;;11.35;;
19671;SDS011;9983;51.114;13.788;2023-05-07T04:37:28;16.77;;;10.88;;
19671;SDS011;9983;51.114;13.788;2023-05-07T04:42:29;15.57;;;11.40;;
19671;SDS011;9983;51.114;13.788;2023-05-07T04:47:29;15.80;;;12.30;;
19671;SDS011;9983;51.114;13.788;2023-05-07T04:52:29;17.50;;;13.07;;
19671;SDS011;9983;51.114;13.788;2023-05-07T04:57:30;17.35;;;12.18;;
19671;SDS011;9983;51.114;13.788;2023-05-07T05:02:30;16.63;;;12.35;;
19671;SDS011;9983;51.114;13.788;2023-05-07T05:07:30;16.20;;;11.50;;
19671;SDS011;9983;51.114;13.788;2023-05-07T05:12:31;16.98;;;11.93;;
19671;SDS011;9983;51.114;13.788;2023-05-07T05:17:31;14.52;;;11.38;;
19671;SDS011;9983;51.114;13.788;2023-05-07T05:22:32;16.27;;;11.30;;
19671;SDS011;9983;51.114;13.788;2023-05-07T05:27:33;13.77;;;10.97;;
19671;SDS011;9983;51.114;13.788;2023-05-07T05:32:34;15.43;;;11.23;;
19671;SDS011;9983;51.114;13.788;2023-05-07T05:37:35;13.82;;;10.98;;
19671;SDS011;9983;51.114;13.788;2023-05-07T05:42:35;12.45;;;10.00;;
19671;SDS011;9983;51.114;13.788;2023-05-07T05:47:35;14.45;;;10.38;;
19671;SDS011;9983;51.114;13.788;2023-05-07T05:52:37;11.40;;;9.10;;
19671;SDS011;9983;51.114;13.788;2023-05-07T05:57:37;11.03;;;8.53;;
19671;SDS011;9983;51.114;13.788;2023-05-07T06:02:38;12.02;;;8.10;;
19671;SDS011;9983;51.114;13.788;2023-05-07T06:07:38;10.27;;;8.00;;
19671;SDS011;9983;51.114;13.788;2023-05-07T06:12:39;9.90;;;7.53;;
19671;SDS011;9983;51.114;13.788;2023-05-07T06:17:39;11.30;;;7.95;;
19671;SDS011;9983;51.114;13.788;2023-05-07T06:22:40;7.80;;;6.70;;
19671;SDS011;9983;51.114;13.788;2023-05-07T06:27:40;8.90;;;7.70;;
19671;SDS011;9983;51.114;13.788;2023-05-07T06:32:40;8.50;;;6.82;;
19671;SDS011;9983;51.114;13.788;2023-05-07T06:37:41;9.80;;;6.97;;
19671;SDS011;9983;51.114;13.788;2023-05-07T06:42:42;8.23;;;7.22;;
19671;SDS011;9983;51.114;13.788;2023-05-07T06:47:42;8.30;;;7.47;;
19671;SDS011;9983;51.114;13.788;2023-05-07T06:52:43;11.32;;;6.78;;
19671;SDS011;9983;51.114;13.788;2023-05-07T06:57:43;5.72;;;4.97;;
19671;SDS011;9983;51.114;13.788;2023-05-07T07:02:43;5.68;;;5.18;;
19671;SDS011;9983;51.114;13.788;2023-05-07T07:07:43;5.40;;;4.90;;
19671;SDS011;9983;51.114;13.788;2023-05-07T07:12:44;5.10;;;4.63;;
19671;SDS011;9983;51.114;13.788;2023-05-07T07:17:44;4.97;;;4.47;;
19671;SDS011;9983;51.114;13.788;2023-05-07T07:22:44;4.43;;;4.03;;
19671;SDS011;9983;51.114;13.788;2023-05-07T07:27:45;4.97;;;4.47;;
19671;SDS011;9983;51.114;13.788;2023-05-07T07:32:45;5.18;;;4.68;;
19671;SDS011;9983;51.114;13.788;2023-05-07T07:37:45;4.10;;;3.80;;
19671;SDS011;9983;51.114;13.788;2023-05-07T07:42:47;5.18;;;4.07;;
19671;SDS011;9983;51.114;13.788;2023-05-07T07:47:47;4.57;;;4.13;;
19671;SDS011;9983;51.114;13.788;2023-05-07T07:52:48;4.63;;;4.22;;
19671;SDS011;9983;51.114;13.788;2023-05-07T07:57:49;4.97;;;3.95;;
19671;SDS011;9983;51.114;13.788;2023-05-07T08:02:49;4.07;;;3.70;;
19671;SDS011;9983;51.114;13.788;2023-05-07T08:07:50;4.35;;;4.03;;
19671;SDS011;9983;51.114;13.788;2023-05-07T08:12:52;3.97;;;3.60;;
19671;SDS011;9983;51.114;13.788;2023-05-07T08:17:52;3.85;;;3.55;;
19671;SDS011;9983;51.114;13.788;2023-05-07T08:22:52;4.20;;;3.80;;
19671;SDS011;9983;51.114;13.788;2023-05-07T08:27:52;4.28;;;3.95;;
19671;SDS011;9983;51.114;13.788;2023-05-07T08:32:53;4.82;;;4.40;;
19671;SDS011;9983;51.114;13.788;2023-05-07T08:37:53;5.10;;;4.60;;
19671;SDS011;9983;51.114;13.788;2023-05-07T08:42:54;5.20;;;4.80;;
19671;SDS011;9983;51.114;13.788;2023-05-07T08:47:58;5.88;;;4.97;;
19671;SDS011;9983;51.114;13.788;2023-05-07T08:52:59;6.88;;;5.22;;
19671;SDS011;9983;51.114;13.788;2023-05-07T08:58:00;5.47;;;4.95;;
19671;SDS011;9983;51.114;13.788;2023-05-07T09:03:01;6.53;;;5.50;;
19671;SDS011;9983;51.114;13.788;2023-05-07T09:08:02;5.82;;;5.05;;
19671;SDS011;9983;51.114;13.788;2023-05-07T09:13:02;8.23;;;6.00;;
19671;SDS011;9983;51.114;13.788;2023-05-07T09:18:02;7.35;;;5.93;;
19671;SDS011;9983;51.114;13.788;2023-05-07T09:23:03;8.23;;;6.10;;
19671;SDS011;9983;51.114;13.788;2023-05-07T09:28:04;6.57;;;5.70;;
19671;SDS011;9983;51.114;13.788;2023-05-07T09:33:09;5.93;;;5.10;;
19671;SDS011;9983;51.114;13.788;2023-05-07T09:38:10;6.25;;;5.65;;
19671;SDS011;9983;51.114;13.788;2023-05-07T09:43:11;5.53;;;4.90;;
19671;SDS011;9983;51.114;13.788;2023-05-07T09:48:12;6.90;;;6.20;;
19671;SDS011;9983;51.114;13.788;2023-05-07T09:53:17;6.45;;;5.78;;
19671;SDS011;9983;51.114;13.788;2023-05-07T09:58:18;7.10;;;6.43;;
19671;SDS011;9983;51.114;13.788;2023-05-07T10:03:19;6.38;;;5.78;;
19671;SDS011;9983;51.114;13.788;2023-05-07T10:08:21;6.35;;;5.75;;
19671;SDS011;9983;51.114;13.788;2023-05-07T10:13:21;6.75;;;6.15;;
19671;SDS011;9983;51.114;13.788;2023-05-07T10:18:21;6.30;;;5.70;;
19671;SDS011;9983;51.114;13.788;2023-05-07T10:23:29;7.57;;;6.13;;
19671;SDS011;9983;51.114;13.788;2023-05-07T10:28:32;6.65;;;5.93;;
19671;SDS011;9983;51.114;13.788;2023-05-07T10:33:40;7.07;;;5.45;;
19671;SDS011;9983;51.114;13.788;2023-05-07T10:38:42;5.70;;;5.10;;
19671;SDS011;9983;51.114;13.788;2023-05-07T10:43:43;5.10;;;4.70;;
19671;SDS011;9983;51.114;13.788;2023-05-07T11:04:28;5.15;;;4.65;;
19671;SDS011;9983;51.114;13.788;2023-05-07T11:14:51;5.45;;;4.63;;
19671;SDS011;9983;51.114;13.788;2023-05-07T11:19:54;5.43;;;4.88;;
19671;SDS011;9983;51.114;13.788;2023-05-07T11:24:56;5.25;;;4.50;;
19671;SDS011;9983;51.114;13.788;2023-05-07T11:29:56;5.15;;;4.63;;
19671;SDS011;9983;51.114;13.788;2023-05-07T11:34:57;4.87;;;4.47;;
19671;SDS011;9983;51.114;13.788;2023-05-07T11:40:02;4.68;;;4.25;;
19671;SDS011;9983;51.114;13.788;2023-05-07T11:45:04;4.68;;;4.28;;
19671;SDS011;9983;51.114;13.788;2023-05-07T11:50:09;4.50;;;4.10;;
19671;SDS011;9983;51.114;13.788;2023-05-07T11:55:10;5.60;;;5.05;;
19671;SDS011;9983;51.114;13.788;2023-05-07T12:00:11;4.60;;;4.28;;
19671;SDS011;9983;51.114;13.788;2023-05-07T12:05:11;4.88;;;4.47;;
19671;SDS011;9983;51.114;13.788;2023-05-07T12:10:12;4.85;;;4.40;;
19671;SDS011;9983;51.114;13.788;2023-05-07T12:15:16;5.25;;;4.88;;
19671;SDS011;9983;51.114;13.788;2023-05-07T12:20:17;5.50;;;5.00;;
19671;SDS011;9983;51.114;13.788;2023-05-07T12:25:19;5.00;;;4.60;;
19671;SDS011;9983;51.114;13.788;2023-05-07T12:30:19;4.90;;;4.50;;
19671;SDS011;9983;51.114;13.788;2023-05-07T12:35:29;4.97;;;4.47;;
19671;SDS011;9983;51.114;13.788;2023-05-07T12:40:37;5.10;;;4.50;;
19671;SDS011;9983;51.114;13.788;2023-05-07T12:45:38;5.07;;;4.68;;
19671;SDS011;9983;51.114;13.788;2023-05-07T12:50:41;5.20;;;4.80;;
19671;SDS011;9983;51.114;13.788;2023-05-07T12:55:44;4.60;;;3.90;;
19671;SDS011;9983;51.114;13.788;2023-05-07T13:00:47;3.80;;;3.50;;
19671;SDS011;9983;51.114;13.788;2023-05-07T13:05:50;4.28;;;3.97;;
19671;SDS011;9983;51.114;13.788;2023-05-07T13:10:51;3.95;;;3.65;;
19671;SDS011;9983;51.114;13.788;2023-05-07T13:15:52;4.07;;;3.78;;
19671;SDS011;9983;51.114;13.788;2023-05-07T13:20:55;3.70;;;3.40;;
19671;SDS011;9983;51.114;13.788;2023-05-07T13:25:56;3.75;;;3.50;;
19671;SDS011;9983;51.114;13.788;2023-05-07T13:30:56;3.45;;;3.22;;
19671;SDS011;9983;51.114;13.788;2023-05-07T13:35:57;3.42;;;3.15;;
19671;SDS011;9983;51.114;13.788;2023-05-07T13:40:57;3.20;;;3.00;;
19671;SDS011;9983;51.114;13.788;2023-05-07T13:45:58;3.33;;;3.00;;
19671;SDS011;9983;51.114;13.788;2023-05-07T13:50:58;3.47;;;3.17;;
19671;SDS011;9983;51.114;13.788;2023-05-07T13:55:58;3.33;;;3.10;;
19671;SDS011;9983;51.114;13.788;2023-05-07T14:00:58;2.97;;;2.78;;
19671;SDS011;9983;51.114;13.788;2023-05-07T14:05:59;3.25;;;3.05;;
19671;SDS011;9983;51.114;13.788;2023-05-07T14:11:01;3.28;;;2.97;;
19671;SDS011;9983;51.114;13.788;2023-05-07T14:16:02;3.25;;;3.03;;
19671;SDS011;9983;51.114;13.788;2023-05-07T14:21:04;2.75;;;2.55;;
19671;SDS011;9983;51.114;13.788;2023-05-07T14:26:06;3.03;;;2.83;;
19671;SDS011;9983;51.114;13.788;2023-05-07T14:31:06;3.13;;;2.80;;
19671;SDS011;9983;51.114;13.788;2023-05-07T14:36:06;3.15;;;2.85;;
19671;SDS011;9983;51.114;13.788;2023-05-07T14:41:07;3.58;;;3.28;;
19671;SDS011;9983;51.114;13.788;2023-05-07T14:46:07;3.80;;;3.47;;
19671;SDS011;9983;51.114;13.788;2023-05-07T14:51:07;3.70;;;3.40;;
19671;SDS011;9983;51.114;13.788;2023-05-07T14:56:07;3.25;;;2.95;;
19671;SDS011;9983;51.114;13.788;2023-05-07T15:01:08;3.40;;;3.17;;
19671;SDS011;9983;51.114;13.788;2023-05-07T15:06:08;3.90;;;3.60;;
19671;SDS011;9983;51.114;13.788;2023-05-07T15:11:09;3.50;;;3.20;;
19671;SDS011;9983;51.114;13.788;2023-05-07T15:16:09;4.15;;;3.85;;
19671;SDS011;9983;51.114;13.788;2023-05-07T15:21:09;3.85;;;3.45;;
19671;SDS011;9983;51.114;13.788;2023-05-07T15:26:10;4.20;;;3.80;;
19671;SDS011;9983;51.114;13.788;2023-05-07T15:31:10;4.03;;;3.65;;
19671;SDS011;9983;51.114;13.788;2023-05-07T15:36:10;8.93;;;4.40;;
19671;SDS011;9983;51.114;13.788;2023-05-07T15:41:11;4.70;;;4.30;;
19671;SDS011;9983;51.114;13.788;2023-05-07T15:46:11;4.47;;;4.15;;
19671;SDS011;9983;51.114;13.788;2023-05-07T15:51:11;4.70;;;4.32;;
19671;SDS011;9983;51.114;13.788;2023-05-07T15:56:12;4.20;;;3.90;;
19671;SDS011;9983;51.114;13.788;2023-05-07T16:01:12;4.30;;;4.00;;
19671;SDS011;9983;51.114;13.788;2023-05-07T16:06:12;4.45;;;3.90;;
19671;SDS011;9983;51.114;13.788;2023-05-07T16:11:13;3.90;;;3.70;;
19671;SDS011;9983;51.114;13.788;2023-05-07T16:16:13;4.10;;;3.80;;
19671;SDS011;9983;51.114;13.788;2023-05-07T16:21:13;4.20;;;3.90;;
19671;SDS011;9983;51.114;13.788;2023-05-07T16:26:13;4.40;;;4.00;;
19671;SDS011;9983;51.114;13.788;2023-05-07T16:31:14;4.50;;;4.10;;
19671;SDS011;9983;51.114;13.788;2023-05-07T16:36:14;4.80;;;4.30;;
19671;SDS011;9983;51.114;13.788;2023-05-07T16:41:14;4.53;;;4.13;;
19671;SDS011;9983;51.114;13.788;2023-05-07T16:46:14;4.53;;;4.13;;
19671;SDS011;9983;51.114;13.788;2023-05-07T16:51:15;5.32;;;4.80;;
19671;SDS011;9983;51.114;13.788;2023-05-07T16:56:15;4.97;;;4.47;;
19671;SDS011;9983;51.114;13.788;2023-05-07T17:01:15;5.00;;;4.60;;
19671;SDS011;9983;51.114;13.788;2023-05-07T17:06:17;4.70;;;4.30;;
19671;SDS011;9983;51.114;13.788;2023-05-07T17:11:18;4.95;;;4.55;;
19671;SDS011;9983;51.114;13.788;2023-05-07T17:16:18;4.90;;;4.50;;
19671;SDS011;9983;51.114;13.788;2023-05-07T17:21:18;4.88;;;4.15;;
19671;SDS011;9983;51.114;13.788;2023-05-07T17:26:18;4.45;;;4.05;;
19671;SDS011;9983;51.114;13.788;2023-05-07T17:31:20;4.57;;;4.10;;
19671;SDS011;9983;51.114;13.788;2023-05-07T17:36:20;5.72;;;4.47;;
19671;SDS011;9983;51.114;13.788;2023-05-07T17:41:20;4.40;;;4.00;;
19671;SDS011;9983;51.114;13.788;2023-05-07T17:46:21;4.70;;;4.30;;
19671;SDS011;9983;51.114;13.788;2023-05-07T17:51:21;7.70;;;4.35;;
19671;SDS011;9983;51.114;13.788;2023-05-07T17:56:22;4.80;;;4.15;;
19671;SDS011;9983;51.114;13.788;2023-05-07T18:01:22;5.25;;;4.85;;
19671;SDS011;9983;51.114;13.788;2023-05-07T18:06:23;5.30;;;4.80;;
19671;SDS011;9983;51.114;13.788;2023-05-07T18:11:23;4.93;;;4.53;;
19671;SDS011;9983;51.114;13.788;2023-05-07T18:16:23;5.00;;;4.57;;
19671;SDS011;9983;51.114;13.788;2023-05-07T18:21:23;5.03;;;4.63;;
19671;SDS011;9983;51.114;13.788;2023-05-07T18:26:24;6.30;;;5.18;;
19671;SDS011;9983;51.114;13.788;2023-05-07T18:31:24;5.50;;;4.90;;
19671;SDS011;9983;51.114;13.788;2023-05-07T18:36:24;5.18;;;4.78;;
19671;SDS011;9983;51.114;13.788;2023-05-07T18:41:26;5.07;;;4.68;;
19671;SDS011;9983;51.114;13.788;2023-05-07T18:46:27;5.07;;;4.68;;
19671;SDS011;9983;51.114;13.788;2023-05-07T18:51:28;5.22;;;4.82;;
19671;SDS011;9983;51.114;13.788;2023-05-07T18:56:28;5.45;;;5.05;;
19671;SDS011;9983;51.114;13.788;2023-05-07T19:01:28;6.55;;;5.30;;
19671;SDS011;9983;51.114;13.788;2023-05-07T19:06:29;5.93;;;5.38;;
19671;SDS011;9983;51.114;13.788;2023-05-07T19:11:30;5.40;;;4.90;;
19671;SDS011;9983;51.114;13.788;2023-05-07T19:16:30;5.72;;;5.20;;
19671;SDS011;9983;51.114;13.788;2023-05-07T19:21:30;5.53;;;5.03;;
19671;SDS011;9983;51.114;13.788;2023-05-07T19:26:31;5.32;;;4.85;;
19671;SDS011;9983;51.114;13.788;2023-05-07T19:31:31;6.65;;;5.65;;
19671;SDS011;9983;51.114;13.788;2023-05-07T19:36:32;6.15;;;5.60;;
19671;SDS011;9983;51.114;13.788;2023-05-07T19:41:33;5.88;;;5.32;;
19671;SDS011;9983;51.114;13.788;2023-05-07T19:46:33;4.88;;;4.47;;
19671;SDS011;9983;51.114;13.788;2023-05-07T19:51:34;5.75;;;5.18;;
19671;SDS011;9983;51.114;13.788;2023-05-07T19:56:34;5.05;;;4.65;;
19671;SDS011;9983;51.114;13.788;2023-05-07T20:01:35;5.30;;;4.90;;
19671;SDS011;9983;51.114;13.788;2023-05-07T20:06:35;5.28;;;4.88;;
19671;SDS011;9983;51.114;13.788;2023-05-07T20:11:35;5.40;;;4.85;;
19671;SDS011;9983;51.114;13.788;2023-05-07T20:16:36;5.72;;;5.22;;
19671;SDS011;9983;51.114;13.788;2023-05-07T20:21:36;5.15;;;4.72;;
19671;SDS011;9983;51.114;13.788;2023-05-07T20:26:36;5.80;;;5.03;;
19671;SDS011;9983;51.114;13.788;2023-05-07T20:31:37;5.07;;;4.68;;
19671;SDS011;9983;51.114;13.788;2023-05-07T20:36:38;6.57;;;4.60;;
19671;SDS011;9983;51.114;13.788;2023-05-07T20:41:39;5.90;;;4.53;;
19671;SDS011;9983;51.114;13.788;2023-05-07T20:46:39;5.03;;;4.63;;
19671;SDS011;9983;51.114;13.788;2023-05-07T20:51:39;4.70;;;4.30;;
19671;SDS011;9983;51.114;13.788;2023-05-07T20:56:39;4.53;;;4.10;;
19671;SDS011;9983;51.114;13.788;2023-05-07T21:01:40;4.25;;;3.85;;
19671;SDS011;9983;51.114;13.788;2023-05-07T21:06:41;4.85;;;4.35;;
19671;SDS011;9983;51.114;13.788;2023-05-07T21:11:42;4.40;;;4.00;;
19671;SDS011;9983;51.114;13.788;2023-05-07T21:16:42;5.45;;;4.30;;
19671;SDS011;9983;51.114;13.788;2023-05-07T21:21:43;4.40;;;3.50;;
19671;SDS011;9983;51.114;13.788;2023-05-07T21:26:43;4.35;;;3.95;;
19671;SDS011;9983;51.114;13.788;2023-05-07T21:31:43;4.20;;;3.80;;
19671;SDS011;9983;51.114;13.788;2023-05-07T21:36:44;4.18;;;3.78;;
19671;SDS011;9983;51.114;13.788;2023-05-07T21:41:44;8.75;;;4.40;;
19671;SDS011;9983;51.114;13.788;2023-05-07T21:46:44;4.45;;;4.05;;
19671;SDS011;9983;51.114;13.788;2023-05-07T21:51:45;4.30;;;3.90;;
19671;SDS011;9983;51.114;13.788;2023-05-07T21:56:45;5.63;;;3.90;;
19671;SDS011;9983;51.114;13.788;2023-05-07T22:01:45;4.13;;;3.72;;
19671;SDS011;9983;51.114;13.788;2023-05-07T22:06:45;6.43;;;4.22;;
19671;SDS011;9983;51.114;13.788;2023-05-07T22:11:46;4.68;;;4.28;;
19671;SDS011;9983;51.114;13.788;2023-05-07T22:16:46;4.90;;;4.03;;
19671;SDS011;9983;51.114;13.788;2023-05-07T22:21:46;4.90;;;4.50;;
19671;SDS011;9983;51.114;13.788;2023-05-07T22:26:46;7.30;;;4.22;;
19671;SDS011;9983;51.114;13.788;2023-05-07T22:31:48;5.05;;;4.53;;
19671;SDS011;9983;51.114;13.788;2023-05-07T22:36:48;4.93;;;4.53;;
19671;SDS011;9983;51.114;13.788;2023-05-07T22:41:49;5.18;;;4.43;;
19671;SDS011;9983;51.114;13.788;2023-05-07T22:46:49;4.07;;;3.78;;
19671;SDS011;9983;51.114;13.788;2023-05-07T22:51:49;4.70;;;4.25;;
19671;SDS011;9983;51.114;13.788;2023-05-07T22:56:49;4.75;;;4.35;;
19671;SDS011;9983;51.114;13.788;2023-05-07T23:01:51;4.55;;;4.18;;
19671;SDS011;9983;51.114;13.788;2023-05-07T23:06:52;4.88;;;4.38;;
19671;SDS011;9983;51.114;13.788;2023-05-07T23:11:52;4.82;;;4.40;;
19671;SDS011;9983;51.114;13.788;2023-05-07T23:16:52;5.10;;;4.60;;
19671;SDS011;9983;51.114;13.788;2023-05-07T23:21:53;6.20;;;4.65;;
19671;SDS011;9983;51.114;13.788;2023-05-07T23:26:53;5.00;;;4.60;;
19671;SDS011;9983;51.114;13.788;2023-05-07T23:31:53;4.85;;;4.45;;
19671;SDS011;9983;51.114;13.788;2023-05-07T23:36:53;6.03;;;4.53;;
19671;SDS011;9983;51.114;13.788;2023-05-07T23:41:54;5.60;;;5.03;;
19671;SDS011;9983;51.114;13.788;2023-05-07T23:46:54;5.40;;;4.90;;
19671;SDS011;9983;51.114;13.788;2023-05-07T23:51:54;5.55;;;5.05;;
19671;SDS011;9983;51.114;13.788;2023-05-07T23:56:54;4.93;;;4.45;;
